Bookmark and Share
Track history (hours):
 

Sunflower Gold

Last reported at 2014-Apr-20 02:33 UTC. Time now 2014-Apr-20 03:21 UTC.
Position N 34°36' E 135°04'.

Length 166 m; draft 5.8 m.

Type: Passenger vessel. MMSI: 431000331.

NotesDate/timePositionNaut miles runAvg speedWind from/ knotsBaromVisibWave heightAir tempDewpointWater temp
2014-Apr-20 02:33N 34°36' E 135°04'1211.9
2014-Apr-20 01:32N 34°42' E 135°17'0 0.0
2014-Apr-20 00:32N 34°42' E 135°17'0 0.0
2014-Apr-19 23:26N 34°42' E 135°17'1 0.9
2014-Apr-19 22:33N 34°41' E 135°18'1413.9
2014-Apr-19 21:33N 34°36' E 135°02'10 0.3
2014-Apr-18 12:18N 34°34' E 134°50'1520.7
2014-Apr-18 11:33N 34°36' E 135°08'9 9.3
2014-Apr-18 10:33N 34°42' E 135°17'0 0.0
2014-Apr-18 09:23N 34°42' E 135°17'0 0.0
2014-Apr-18 08:29N 34°42' E 135°17'0 0.0
2014-Apr-18 07:29N 34°42' E 135°17'0 0.0
2014-Apr-18 06:29N 34°42' E 135°17'0 0.0
2014-Apr-18 05:29N 34°42' E 135°17'0 0.0
2014-Apr-18 04:17N 34°42' E 135°17'0 0.0
2014-Apr-18 03:29N 34°42' E 135°17'0 0.0
2014-Apr-18 02:29N 34°42' E 135°17'0 0.0
2014-Apr-18 01:29N 34°42' E 135°17'0 0.0
2014-Apr-18 00:29N 34°42' E 135°17'0 0.0
2014-Apr-17 23:29N 34°42' E 135°17'0 0.0
2014-Apr-17 22:29N 34°42' E 135°17'0 0.0
2014-Apr-17 21:33N 34°42' E 135°17'1312.7
2014-Apr-17 20:33N 34°35' E 135°04'15 0.4
2014-Apr-16 11:29N 34°34' E 134°47'2122.3
2014-Apr-16 10:33N 34°36' E 135°12'7 5.9
2014-Apr-16 09:20N 34°42' E 135°17'0 0.0
2014-Apr-16 08:32N 34°42' E 135°17'0 0.0
2014-Apr-16 07:26N 34°42' E 135°17'0 0.0
2014-Apr-16 06:26N 34°42' E 135°17'0 0.0
2014-Apr-16 05:32N 34°42' E 135°17'0 0.0
2014-Apr-16 04:32N 34°42' E 135°17'0 0.0
2014-Apr-16 03:32N 34°42' E 135°17'0 0.0
2014-Apr-16 02:32N 34°42' E 135°17'0 0.0
2014-Apr-16 01:26N 34°42' E 135°17'0 0.0
2014-Apr-16 00:32N 34°42' E 135°17'0 0.0
2014-Apr-15 23:20N 34°42' E 135°17'0 0.0
2014-Apr-15 22:32N 34°42' E 135°17'0 0.0
2014-Apr-15 21:33N 34°42' E 135°17'1111.1
2014-Apr-15 20:33N 34°34' E 135°07'2018.6
2014-Apr-15 19:29N 34°31' E 134°43'4 0.1
2014-Apr-14 10:33N 34°34' E 134°46'2222.2
2014-Apr-14 09:34N 34°37' E 135°13'6 6.1
2014-Apr-14 08:32N 34°42' E 135°17'0 0.0
2014-Apr-14 07:32N 34°42' E 135°17'0 0.0
2014-Apr-14 05:32N 34°42' E 135°17'0 0.0
2014-Apr-13 22:20N 34°42' E 135°17'0 0.0
2014-Apr-13 21:32N 34°42' E 135°17'9 9.5
2014-Apr-13 20:34N 34°35' E 135°09'1919.0
2014-Apr-13 19:33N 34°31' E 134°47'5 0.1
2014-Apr-12 12:15N 34°35' E 134°50'1420.7
2014-Apr-12 11:33N 34°36' E 135°08'10 7.9
2014-Apr-12 10:20N 34°42' E 135°17'0 0.0
2014-Apr-12 09:32N 34°42' E 135°17'0 0.0
2014-Apr-12 08:32N 34°42' E 135°17'0 0.0
2014-Apr-12 07:32N 34°42' E 135°17'0 0.0
2014-Apr-12 06:32N 34°42' E 135°17'0 0.0
2014-Apr-12 05:32N 34°42' E 135°17'0 0.0
2014-Apr-12 04:32N 34°42' E 135°17'0 0.0
2014-Apr-12 03:20N 34°42' E 135°17'0 0.0
2014-Apr-12 02:32N 34°42' E 135°17'0 0.0
2014-Apr-12 01:32N 34°42' E 135°17'0 0.0
2014-Apr-12 00:32N 34°42' E 135°17'0 0.0
2014-Apr-11 23:32N 34°42' E 135°17'1 1.0
2014-Apr-11 22:33N 34°41' E 135°18'1414.2
2014-Apr-11 21:33N 34°37' E 135°02'9 0.3
2014-Apr-10 11:24N 34°35' E 134°51'1719.8
2014-Apr-10 10:33N 34°37' E 135°12'7 6.3
2014-Apr-10 09:28N 34°42' E 135°17'0 0.0
2014-Apr-10 08:22N 34°42' E 135°17'0 0.0
2014-Apr-10 07:28N 34°42' E 135°17'0 0.0
2014-Apr-10 06:28N 34°42' E 135°17'0 0.0
2014-Apr-10 05:28N 34°42' E 135°17'0 0.0
2014-Apr-10 04:28N 34°42' E 135°17'0 0.0
2014-Apr-10 03:28N 34°42' E 135°17'  

Dump ship's entire track history

sailing weather and tide predictions

Sunflower Gold — JD2460 — position and weather